sensor_id;sensor_type;location;lat;lon;timestamp;P1;durP1;ratioP1;P2;durP2;ratioP2
64214;SDS011;54441;52.110;5.252;2022-07-15T00:00:40;7.4;;;2.8;;
64214;SDS011;54441;52.110;5.252;2022-07-15T00:02:26;4.8;;;2.4;;
64214;SDS011;54441;52.110;5.252;2022-07-15T00:07:45;3.3;;;1.9;;
64214;SDS011;54441;52.110;5.252;2022-07-15T00:10:35;5.11;;;2.21;;
64214;SDS011;54441;52.110;5.252;2022-07-15T00:12:21;3.5;;;2.21;;
64214;SDS011;54441;52.110;5.252;2022-07-15T00:14:07;6.3;;;2.7;;
64214;SDS011;54441;52.110;5.252;2022-07-15T00:15:54;12.5;;;2.9;;
64214;SDS011;54441;52.110;5.252;2022-07-15T00:17:40;7.3;;;3.0;;
64214;SDS011;54441;52.110;5.252;2022-07-15T00:19:27;6.8;;;2.6;;
64214;SDS011;54441;52.110;5.252;2022-07-15T00:21:13;5.5;;;2.7;;
64214;SDS011;54441;52.110;5.252;2022-07-15T00:24:47;5.6;;;2.0;;
64214;SDS011;54441;52.110;5.252;2022-07-15T00:26:34;7.3;;;2.21;;
64214;SDS011;54441;52.110;5.252;2022-07-15T00:28:20;7.4;;;2.31;;
64214;SDS011;54441;52.110;5.252;2022-07-15T00:30:08;6.0;;;2.5;;
64214;SDS011;54441;52.110;5.252;2022-07-15T00:31:55;7.5;;;3.0;;
64214;SDS011;54441;52.110;5.252;2022-07-15T00:33:42;5.6;;;2.31;;
64214;SDS011;54441;52.110;5.252;2022-07-15T00:37:16;9.5;;;2.8;;
64214;SDS011;54441;52.110;5.252;2022-07-15T00:39:03;9.71;;;2.7;;
64214;SDS011;54441;52.110;5.252;2022-07-15T00:40:51;6.3;;;2.6;;
64214;SDS011;54441;52.110;5.252;2022-07-15T00:42:44;5.3;;;2.5;;
64214;SDS011;54441;52.110;5.252;2022-07-15T00:44:31;5.11;;;2.21;;
64214;SDS011;54441;52.110;5.252;2022-07-15T00:46:17;5.0;;;2.31;;
64214;SDS011;54441;52.110;5.252;2022-07-15T00:49:51;8.81;;;3.1;;
64214;SDS011;54441;52.110;5.252;2022-07-15T00:51:40;7.5;;;2.31;;
64214;SDS011;54441;52.110;5.252;2022-07-15T00:53:29;8.71;;;2.7;;
64214;SDS011;54441;52.110;5.252;2022-07-15T00:55:20;5.11;;;2.4;;
64214;SDS011;54441;52.110;5.252;2022-07-15T00:57:08;4.8;;;2.6;;
64214;SDS011;54441;52.110;5.252;2022-07-15T00:58:55;4.61;;;2.4;;
64214;SDS011;54441;52.110;5.252;2022-07-15T01:02:33;5.8;;;2.31;;
64214;SDS011;54441;52.110;5.252;2022-07-15T01:04:21;5.0;;;2.21;;
64214;SDS011;54441;52.110;5.252;2022-07-15T01:06:08;6.8;;;2.31;;
64214;SDS011;54441;52.110;5.252;2022-07-15T01:07:54;4.61;;;2.31;;
64214;SDS011;54441;52.110;5.252;2022-07-15T01:09:40;9.31;;;2.9;;
64214;SDS011;54441;52.110;5.252;2022-07-15T01:11:27;8.1;;;2.5;;
64214;SDS011;54441;52.110;5.252;2022-07-15T01:15:01;7.0;;;2.5;;
64214;SDS011;54441;52.110;5.252;2022-07-15T01:16:48;7.3;;;2.31;;
64214;SDS011;54441;52.110;5.252;2022-07-15T01:18:34;9.71;;;2.21;;
64214;SDS011;54441;52.110;5.252;2022-07-15T01:20:20;3.9;;;1.9;;
64214;SDS011;54441;52.110;5.252;2022-07-15T01:22:07;4.91;;;2.21;;
64214;SDS011;54441;52.110;5.252;2022-07-15T01:23:54;5.0;;;1.9;;
64214;SDS011;54441;52.110;5.252;2022-07-15T01:27:27;4.41;;;2.0;;
64214;SDS011;54441;52.110;5.252;2022-07-15T01:29:14;6.1;;;2.31;;
64214;SDS011;54441;52.110;5.252;2022-07-15T01:31:00;5.8;;;2.21;;
64214;SDS011;54441;52.110;5.252;2022-07-15T01:32:46;6.8;;;2.7;;
64214;SDS011;54441;52.110;5.252;2022-07-15T01:34:34;7.1;;;2.31;;
64214;SDS011;54441;52.110;5.252;2022-07-15T01:38:07;7.5;;;3.0;;
64214;SDS011;54441;52.110;5.252;2022-07-15T01:39:53;7.1;;;2.5;;
64214;SDS011;54441;52.110;5.252;2022-07-15T01:41:40;5.9;;;2.1;;
64214;SDS011;54441;52.110;5.252;2022-07-15T01:43:27;7.9;;;2.9;;
64214;SDS011;54441;52.110;5.252;2022-07-15T01:45:14;6.3;;;2.1;;
64214;SDS011;54441;52.110;5.252;2022-07-15T01:47:02;3.8;;;2.0;;
64214;SDS011;54441;52.110;5.252;2022-07-15T01:51:38;4.61;;;1.9;;
64214;SDS011;54441;52.110;5.252;2022-07-15T01:53:26;3.6;;;1.9;;
64214;SDS011;54441;52.110;5.252;2022-07-15T01:57:00;3.3;;;2.0;;
64214;SDS011;54441;52.110;5.252;2022-07-15T01:58:47;5.8;;;1.9;;
64214;SDS011;54441;52.110;5.252;2022-07-15T02:00:34;8.2;;;2.6;;
64214;SDS011;54441;52.110;5.252;2022-07-15T02:02:20;4.2;;;1.9;;
64214;SDS011;54441;52.110;5.252;2022-07-15T02:04:07;4.91;;;2.7;;
64214;SDS011;54441;52.110;5.252;2022-07-15T02:05:53;7.4;;;1.9;;
64214;SDS011;54441;52.110;5.252;2022-07-15T02:09:26;5.3;;;2.1;;
64214;SDS011;54441;52.110;5.252;2022-07-15T02:11:13;9.6;;;2.8;;
64214;SDS011;54441;52.110;5.252;2022-07-15T02:12:59;5.6;;;1.9;;
64214;SDS011;54441;52.110;5.252;2022-07-15T02:14:45;5.7;;;2.31;;
64214;SDS011;54441;52.110;5.252;2022-07-15T02:16:32;3.6;;;1.9;;
64214;SDS011;54441;52.110;5.252;2022-07-15T02:18:19;9.1;;;2.9;;
64214;SDS011;54441;52.110;5.252;2022-07-15T02:21:55;7.9;;;2.1;;
64214;SDS011;54441;52.110;5.252;2022-07-15T02:23:42;8.1;;;2.5;;
64214;SDS011;54441;52.110;5.252;2022-07-15T02:25:29;5.4;;;2.21;;
64214;SDS011;54441;52.110;5.252;2022-07-15T02:27:17;3.9;;;2.6;;
64214;SDS011;54441;52.110;5.252;2022-07-15T02:29:04;4.91;;;1.8;;
64214;SDS011;54441;52.110;5.252;2022-07-15T02:30:50;3.0;;;1.6;;
64214;SDS011;54441;52.110;5.252;2022-07-15T02:34:24;4.1;;;2.0;;
64214;SDS011;54441;52.110;5.252;2022-07-15T02:36:10;5.6;;;2.4;;
64214;SDS011;54441;52.110;5.252;2022-07-15T02:37:59;4.61;;;1.7;;
64214;SDS011;54441;52.110;5.252;2022-07-15T02:39:46;6.7;;;2.4;;
64214;SDS011;54441;52.110;5.252;2022-07-15T02:41:32;7.1;;;2.7;;
64214;SDS011;54441;52.110;5.252;2022-07-15T02:45:06;3.1;;;1.8;;
64214;SDS011;54441;52.110;5.252;2022-07-15T02:46:53;4.5;;;2.21;;
64214;SDS011;54441;52.110;5.252;2022-07-15T02:48:39;5.5;;;2.6;;
64214;SDS011;54441;52.110;5.252;2022-07-15T02:50:26;6.5;;;2.21;;
64214;SDS011;54441;52.110;5.252;2022-07-15T02:52:15;5.7;;;2.6;;
64214;SDS011;54441;52.110;5.252;2022-07-15T02:54:01;6.8;;;2.1;;
64214;SDS011;54441;52.110;5.252;2022-07-15T02:57:34;5.7;;;2.31;;
64214;SDS011;54441;52.110;5.252;2022-07-15T02:59:20;5.7;;;2.31;;
64214;SDS011;54441;52.110;5.252;2022-07-15T03:01:07;6.8;;;2.21;;
64214;SDS011;54441;52.110;5.252;2022-07-15T03:02:54;4.1;;;2.4;;
64214;SDS011;54441;52.110;5.252;2022-07-15T03:04:41;3.6;;;2.0;;
64214;SDS011;54441;52.110;5.252;2022-07-15T03:06:27;3.8;;;2.0;;
64214;SDS011;54441;52.110;5.252;2022-07-15T03:10:00;4.7;;;2.21;;
64214;SDS011;54441;52.110;5.252;2022-07-15T03:11:47;7.1;;;2.7;;
64214;SDS011;54441;52.110;5.252;2022-07-15T03:13:34;7.9;;;2.5;;
64214;SDS011;54441;52.110;5.252;2022-07-15T03:15:20;4.1;;;1.7;;
64214;SDS011;54441;52.110;5.252;2022-07-15T03:17:07;5.6;;;2.6;;
64214;SDS011;54441;52.110;5.252;2022-07-15T03:20:40;5.5;;;2.6;;
64214;SDS011;54441;52.110;5.252;2022-07-15T03:22:27;5.6;;;2.6;;
64214;SDS011;54441;52.110;5.252;2022-07-15T03:24:14;4.7;;;2.31;;
64214;SDS011;54441;52.110;5.252;2022-07-15T03:26:01;3.8;;;2.21;;
64214;SDS011;54441;52.110;5.252;2022-07-15T03:29:33;4.0;;;2.31;;
64214;SDS011;54441;52.110;5.252;2022-07-15T03:33:07;4.7;;;2.31;;
64214;SDS011;54441;52.110;5.252;2022-07-15T03:34:56;5.7;;;2.7;;
64214;SDS011;54441;52.110;5.252;2022-07-15T03:36:43;6.7;;;2.31;;
64214;SDS011;54441;52.110;5.252;2022-07-15T03:38:30;4.91;;;2.6;;
64214;SDS011;54441;52.110;5.252;2022-07-15T03:42:04;4.3;;;2.21;;
64214;SDS011;54441;52.110;5.252;2022-07-15T03:45:36;3.2;;;2.5;;
64214;SDS011;54441;52.110;5.252;2022-07-15T03:47:22;8.1;;;2.6;;
64214;SDS011;54441;52.110;5.252;2022-07-15T03:49:08;10.0;;;2.8;;
64214;SDS011;54441;52.110;5.252;2022-07-15T03:50:54;5.9;;;2.31;;
64214;SDS011;54441;52.110;5.252;2022-07-15T03:52:41;6.5;;;3.1;;
64214;SDS011;54441;52.110;5.252;2022-07-15T03:56:13;7.0;;;2.8;;
64214;SDS011;54441;52.110;5.252;2022-07-15T03:57:59;4.91;;;2.5;;
64214;SDS011;54441;52.110;5.252;2022-07-15T03:59:46;5.0;;;2.1;;
64214;SDS011;54441;52.110;5.252;2022-07-15T04:01:33;4.91;;;2.1;;
64214;SDS011;54441;52.110;5.252;2022-07-15T04:03:20;4.2;;;2.6;;
64214;SDS011;54441;52.110;5.252;2022-07-15T04:05:06;5.0;;;2.31;;
64214;SDS011;54441;52.110;5.252;2022-07-15T04:08:41;7.1;;;2.8;;
64214;SDS011;54441;52.110;5.252;2022-07-15T04:10:29;4.1;;;2.1;;
64214;SDS011;54441;52.110;5.252;2022-07-15T04:12:15;6.0;;;2.5;;
64214;SDS011;54441;52.110;5.252;2022-07-15T04:14:01;9.71;;;3.0;;
64214;SDS011;54441;52.110;5.252;2022-07-15T04:15:48;5.11;;;2.7;;
64214;SDS011;54441;52.110;5.252;2022-07-15T04:17:34;3.4;;;2.31;;
64214;SDS011;54441;52.110;5.252;2022-07-15T04:21:09;5.4;;;2.4;;
64214;SDS011;54441;52.110;5.252;2022-07-15T04:22:56;6.5;;;2.6;;
64214;SDS011;54441;52.110;5.252;2022-07-15T04:24:42;4.41;;;2.1;;
64214;SDS011;54441;52.110;5.252;2022-07-15T04:26:29;5.6;;;2.5;;
64214;SDS011;54441;52.110;5.252;2022-07-15T04:28:15;5.6;;;2.5;;
64214;SDS011;54441;52.110;5.252;2022-07-15T04:31:49;6.7;;;2.8;;
64214;SDS011;54441;52.110;5.252;2022-07-15T04:33:35;4.1;;;2.6;;
64214;SDS011;54441;52.110;5.252;2022-07-15T04:35:21;6.2;;;3.2;;
64214;SDS011;54441;52.110;5.252;2022-07-15T04:38:53;3.1;;;2.21;;
64214;SDS011;54441;52.110;5.252;2022-07-15T04:40:41;5.5;;;2.6;;
64214;SDS011;54441;52.110;5.252;2022-07-15T04:44:14;5.7;;;2.31;;
64214;SDS011;54441;52.110;5.252;2022-07-15T04:46:01;5.2;;;2.5;;
64214;SDS011;54441;52.110;5.252;2022-07-15T04:47:48;5.5;;;2.7;;
64214;SDS011;54441;52.110;5.252;2022-07-15T04:52:42;3.0;;;2.21;;
64214;SDS011;54441;52.110;5.252;2022-07-15T04:54:29;5.0;;;2.1;;
64214;SDS011;54441;52.110;5.252;2022-07-15T04:56:15;4.91;;;2.31;;
64214;SDS011;54441;52.110;5.252;2022-07-15T04:58:01;3.6;;;2.1;;
64214;SDS011;54441;52.110;5.252;2022-07-15T04:59:49;5.9;;;2.5;;
64214;SDS011;54441;52.110;5.252;2022-07-15T05:01:35;5.2;;;2.6;;
64214;SDS011;54441;52.110;5.252;2022-07-15T05:05:08;3.9;;;2.1;;
64214;SDS011;54441;52.110;5.252;2022-07-15T05:06:56;5.2;;;2.21;;
64214;SDS011;54441;52.110;5.252;2022-07-15T05:08:43;7.1;;;2.4;;
64214;SDS011;54441;52.110;5.252;2022-07-15T05:10:30;7.0;;;2.6;;
64214;SDS011;54441;52.110;5.252;2022-07-15T05:12:16;5.11;;;2.31;;
64214;SDS011;54441;52.110;5.252;2022-07-15T05:14:02;6.4;;;3.0;;
64214;SDS011;54441;52.110;5.252;2022-07-15T05:17:35;4.5;;;2.21;;
64214;SDS011;54441;52.110;5.252;2022-07-15T05:19:26;3.4;;;1.8;;
64214;SDS011;54441;52.110;5.252;2022-07-15T05:21:13;5.0;;;2.1;;
64214;SDS011;54441;52.110;5.252;2022-07-15T05:23:00;4.61;;;2.1;;
64214;SDS011;54441;52.110;5.252;2022-07-15T05:24:46;4.2;;;2.21;;
64214;SDS011;54441;52.110;5.252;2022-07-15T05:26:33;4.1;;;1.8;;
64214;SDS011;54441;52.110;5.252;2022-07-15T05:30:08;5.11;;;2.31;;
64214;SDS011;54441;52.110;5.252;2022-07-15T05:31:56;8.0;;;2.5;;
64214;SDS011;54441;52.110;5.252;2022-07-15T05:33:42;3.8;;;1.9;;
64214;SDS011;54441;52.110;5.252;2022-07-15T05:35:29;5.5;;;2.31;;
64214;SDS011;54441;52.110;5.252;2022-07-15T05:37:16;3.6;;;1.9;;
64214;SDS011;54441;52.110;5.252;2022-07-15T05:40:49;5.4;;;2.21;;
64214;SDS011;54441;52.110;5.252;2022-07-15T05:42:35;4.5;;;2.0;;
64214;SDS011;54441;52.110;5.252;2022-07-15T05:44:23;7.5;;;2.21;;
64214;SDS011;54441;52.110;5.252;2022-07-15T05:47:58;5.2;;;1.9;;
64214;SDS011;54441;52.110;5.252;2022-07-15T05:49:44;3.1;;;1.8;;
64214;SDS011;54441;52.110;5.252;2022-07-15T05:53:16;3.5;;;1.6;;
64214;SDS011;54441;52.110;5.252;2022-07-15T05:55:03;6.1;;;2.31;;
64214;SDS011;54441;52.110;5.252;2022-07-15T05:56:51;3.6;;;1.8;;
64214;SDS011;54441;52.110;5.252;2022-07-15T05:58:37;4.0;;;2.1;;
64214;SDS011;54441;52.110;5.252;2022-07-15T06:00:24;6.4;;;1.9;;
64214;SDS011;54441;52.110;5.252;2022-07-15T06:02:10;4.8;;;2.0;;
64214;SDS011;54441;52.110;5.252;2022-07-15T06:05:42;4.0;;;1.7;;
64214;SDS011;54441;52.110;5.252;2022-07-15T06:07:29;4.8;;;1.9;;
64214;SDS011;54441;52.110;5.252;2022-07-15T06:09:15;5.4;;;1.8;;
64214;SDS011;54441;52.110;5.252;2022-07-15T06:11:02;6.5;;;2.5;;
64214;SDS011;54441;52.110;5.252;2022-07-15T06:12:48;4.8;;;2.0;;
64214;SDS011;54441;52.110;5.252;2022-07-15T06:16:22;6.7;;;1.9;;
64214;SDS011;54441;52.110;5.252;2022-07-15T06:18:10;5.2;;;2.0;;
64214;SDS011;54441;52.110;5.252;2022-07-15T06:19:56;5.5;;;1.9;;
64214;SDS011;54441;52.110;5.252;2022-07-15T06:21:42;5.11;;;1.8;;
64214;SDS011;54441;52.110;5.252;2022-07-15T06:23:28;6.4;;;2.4;;
64214;SDS011;54441;52.110;5.252;2022-07-15T06:25:14;5.7;;;1.7;;
64214;SDS011;54441;52.110;5.252;2022-07-15T06:28:46;5.3;;;2.6;;
64214;SDS011;54441;52.110;5.252;2022-07-15T06:30:34;5.9;;;2.0;;
64214;SDS011;54441;52.110;5.252;2022-07-15T06:32:20;6.9;;;2.21;;
64214;SDS011;54441;52.110;5.252;2022-07-15T06:34:06;6.3;;;1.9;;
64214;SDS011;54441;52.110;5.252;2022-07-15T06:35:54;3.7;;;1.8;;
64214;SDS011;54441;52.110;5.252;2022-07-15T06:37:40;4.5;;;1.7;;
64214;SDS011;54441;52.110;5.252;2022-07-15T06:41:14;5.4;;;1.7;;
64214;SDS011;54441;52.110;5.252;2022-07-15T06:43:00;5.8;;;1.9;;
64214;SDS011;54441;52.110;5.252;2022-07-15T06:44:47;8.4;;;1.9;;
64214;SDS011;54441;52.110;5.252;2022-07-15T06:46:34;8.0;;;1.9;;
64214;SDS011;54441;52.110;5.252;2022-07-15T06:48:20;8.4;;;2.21;;
64214;SDS011;54441;52.110;5.252;2022-07-15T06:51:55;6.2;;;1.8;;
64214;SDS011;54441;52.110;5.252;2022-07-15T06:53:42;5.9;;;1.5;;
64214;SDS011;54441;52.110;5.252;2022-07-15T06:55:29;4.5;;;1.6;;
64214;SDS011;54441;52.110;5.252;2022-07-15T06:57:16;5.11;;;1.6;;
64214;SDS011;54441;52.110;5.252;2022-07-15T06:59:03;6.6;;;1.7;;
64214;SDS011;54441;52.110;5.252;2022-07-15T07:00:50;5.9;;;2.0;;
64214;SDS011;54441;52.110;5.252;2022-07-15T07:04:24;6.6;;;2.0;;
64214;SDS011;54441;52.110;5.252;2022-07-15T07:06:10;6.6;;;2.0;;
64214;SDS011;54441;52.110;5.252;2022-07-15T07:07:58;5.3;;;1.6;;
64214;SDS011;54441;52.110;5.252;2022-07-15T07:09:45;6.8;;;1.9;;
64214;SDS011;54441;52.110;5.252;2022-07-15T07:11:32;4.91;;;1.3;;
64214;SDS011;54441;52.110;5.252;2022-07-15T07:13:19;6.1;;;1.3;;
64214;SDS011;54441;52.110;5.252;2022-07-15T07:16:54;4.1;;;1.5;;
64214;SDS011;54441;52.110;5.252;2022-07-15T07:18:41;4.0;;;1.7;;
64214;SDS011;54441;52.110;5.252;2022-07-15T07:20:29;7.2;;;1.8;;
64214;SDS011;54441;52.110;5.252;2022-07-15T07:22:16;4.61;;;1.4;;
64214;SDS011;54441;52.110;5.252;2022-07-15T07:25:49;3.0;;;1.4;;
64214;SDS011;54441;52.110;5.252;2022-07-15T07:29:23;4.91;;;1.2;;
64214;SDS011;54441;52.110;5.252;2022-07-15T07:31:10;5.6;;;1.6;;
64214;SDS011;54441;52.110;5.252;2022-07-15T07:32:59;3.3;;;1.4;;
64214;SDS011;54441;52.110;5.252;2022-07-15T07:34:46;3.1;;;1.11;;
64214;SDS011;54441;52.110;5.252;2022-07-15T07:36:32;4.5;;;1.4;;
64214;SDS011;54441;52.110;5.252;2022-07-15T07:40:07;4.61;;;1.2;;
64214;SDS011;54441;52.110;5.252;2022-07-15T07:41:54;4.2;;;1.11;;
64214;SDS011;54441;52.110;5.252;2022-07-15T07:43:40;7.7;;;1.8;;
64214;SDS011;54441;52.110;5.252;2022-07-15T07:45:28;4.1;;;1.3;;
64214;SDS011;54441;52.110;5.252;2022-07-15T07:47:16;4.7;;;1.2;;
64214;SDS011;54441;52.110;5.252;2022-07-15T07:49:03;2.6;;;1.0;;
64214;SDS011;54441;52.110;5.252;2022-07-15T07:52:39;3.1;;;0.8;;
64214;SDS011;54441;52.110;5.252;2022-07-15T07:54:26;2.4;;;0.6;;
64214;SDS011;54441;52.110;5.252;2022-07-15T07:56:12;4.61;;;1.2;;
64214;SDS011;54441;52.110;5.252;2022-07-15T07:58:01;3.7;;;1.0;;
64214;SDS011;54441;52.110;5.252;2022-07-15T07:59:47;3.4;;;0.8;;
64214;SDS011;54441;52.110;5.252;2022-07-15T08:01:34;3.6;;;1.0;;
64214;SDS011;54441;52.110;5.252;2022-07-15T08:05:08;3.4;;;1.4;;
64214;SDS011;54441;52.110;5.252;2022-07-15T08:06:56;3.8;;;1.2;;
64214;SDS011;54441;52.110;5.252;2022-07-15T08:08:42;3.3;;;1.0;;
64214;SDS011;54441;52.110;5.252;2022-07-15T08:10:28;4.0;;;1.11;;
64214;SDS011;54441;52.110;5.252;2022-07-15T08:12:16;4.8;;;1.7;;
64214;SDS011;54441;52.110;5.252;2022-07-15T08:14:01;4.1;;;1.6;;
64214;SDS011;54441;52.110;5.252;2022-07-15T08:17:36;2.9;;;1.11;;
64214;SDS011;54441;52.110;5.252;2022-07-15T08:19:23;3.9;;;1.11;;
64214;SDS011;54441;52.110;5.252;2022-07-15T08:21:09;3.2;;;1.2;;
64214;SDS011;54441;52.110;5.252;2022-07-15T08:22:58;4.61;;;1.2;;
64214;SDS011;54441;52.110;5.252;2022-07-15T08:24:45;4.8;;;1.5;;
64214;SDS011;54441;52.110;5.252;2022-07-15T08:26:32;4.1;;;1.11;;
64214;SDS011;54441;52.110;5.252;2022-07-15T08:30:05;1.8;;;1.11;;
64214;SDS011;54441;52.110;5.252;2022-07-15T08:31:52;5.5;;;1.11;;
64214;SDS011;54441;52.110;5.252;2022-07-15T08:33:38;4.8;;;1.2;;
64214;SDS011;54441;52.110;5.252;2022-07-15T08:35:25;3.1;;;0.9;;
64214;SDS011;54441;52.110;5.252;2022-07-15T08:37:13;5.4;;;1.0;;
64214;SDS011;54441;52.110;5.252;2022-07-15T08:39:00;4.91;;;1.4;;
64214;SDS011;54441;52.110;5.252;2022-07-15T08:42:37;2.5;;;1.11;;
64214;SDS011;54441;52.110;5.252;2022-07-15T08:44:25;1.7;;;1.0;;
64214;SDS011;54441;52.110;5.252;2022-07-15T08:46:11;2.31;;;0.8;;
64214;SDS011;54441;52.110;5.252;2022-07-15T08:48:00;3.6;;;1.11;;
64214;SDS011;54441;52.110;5.252;2022-07-15T08:49:50;4.0;;;1.0;;
64214;SDS011;54441;52.110;5.252;2022-07-15T08:51:43;2.21;;;0.7;;
64214;SDS011;54441;52.110;5.252;2022-07-15T08:55:19;2.31;;;1.0;;
64214;SDS011;54441;52.110;5.252;2022-07-15T08:57:07;2.4;;;1.11;;
64214;SDS011;54441;52.110;5.252;2022-07-15T08:58:53;2.0;;;1.11;;
64214;SDS011;54441;52.110;5.252;2022-07-15T09:00:40;5.9;;;1.0;;
64214;SDS011;54441;52.110;5.252;2022-07-15T09:02:26;1.9;;;0.7;;
64214;SDS011;54441;52.110;5.252;2022-07-15T09:04:12;1.9;;;0.7;;
64214;SDS011;54441;52.110;5.252;2022-07-15T09:07:49;0.6;;;0.4;;
64214;SDS011;54441;52.110;5.252;2022-07-15T09:09:37;1.11;;;0.4;;
64214;SDS011;54441;52.110;5.252;2022-07-15T09:11:27;1.0;;;0.6;;
64214;SDS011;54441;52.110;5.252;2022-07-15T09:13:23;0.8;;;0.5;;
64214;SDS011;54441;52.110;5.252;2022-07-15T09:15:27;3.5;;;0.7;;
64214;SDS011;54441;52.110;5.252;2022-07-15T09:17:20;2.6;;;0.7;;
64214;SDS011;54441;52.110;5.252;2022-07-15T09:19:09;2.7;;;0.8;;
64214;SDS011;54441;52.110;5.252;2022-07-15T09:20:55;2.31;;;0.5;;
64214;SDS011;54441;52.110;5.252;2022-07-15T09:24:38;4.1;;;0.9;;
64214;SDS011;54441;52.110;5.252;2022-07-15T09:26:29;1.3;;;0.7;;
64214;SDS011;54441;52.110;5.252;2022-07-15T09:28:18;1.8;;;1.0;;
64214;SDS011;54441;52.110;5.252;2022-07-15T09:33:41;3.0;;;0.8;;
64214;SDS011;54441;52.110;5.252;2022-07-15T09:36:31;2.31;;;0.9;;
64214;SDS011;54441;52.110;5.252;2022-07-15T09:38:21;1.5;;;0.7;;
64214;SDS011;54441;52.110;5.252;2022-07-15T09:40:10;4.2;;;1.2;;
64214;SDS011;54441;52.110;5.252;2022-07-15T09:42:04;4.8;;;0.8;;
64214;SDS011;54441;52.110;5.252;2022-07-15T09:43:52;2.0;;;0.7;;
64214;SDS011;54441;52.110;5.252;2022-07-15T09:47:30;1.9;;;0.7;;
64214;SDS011;54441;52.110;5.252;2022-07-15T09:49:16;2.5;;;0.7;;
64214;SDS011;54441;52.110;5.252;2022-07-15T09:51:18;2.1;;;0.8;;
64214;SDS011;54441;52.110;5.252;2022-07-15T09:53:10;3.2;;;1.11;;
64214;SDS011;54441;52.110;5.252;2022-07-15T09:54:58;3.5;;;0.7;;
64214;SDS011;54441;52.110;5.252;2022-07-15T09:56:45;2.7;;;0.9;;
64214;SDS011;54441;52.110;5.252;2022-07-15T09:58:33;1.8;;;0.7;;
64214;SDS011;54441;52.110;5.252;2022-07-15T10:02:10;3.2;;;1.3;;
64214;SDS011;54441;52.110;5.252;2022-07-15T10:03:57;2.1;;;0.8;;
64214;SDS011;54441;52.110;5.252;2022-07-15T10:05:44;5.7;;;1.2;;
64214;SDS011;54441;52.110;5.252;2022-07-15T10:07:35;3.6;;;0.9;;
64214;SDS011;54441;52.110;5.252;2022-07-15T10:09:24;4.3;;;0.8;;
64214;SDS011;54441;52.110;5.252;2022-07-15T10:11:13;0.9;;;0.7;;
64214;SDS011;54441;52.110;5.252;2022-07-15T10:15:12;1.6;;;0.6;;
64214;SDS011;54441;52.110;5.252;2022-07-15T10:17:17;1.9;;;0.5;;
64214;SDS011;54441;52.110;5.252;2022-07-15T10:20:31;3.4;;;0.7;;
64214;SDS011;54441;52.110;5.252;2022-07-15T10:23:30;2.5;;;1.11;;
64214;SDS011;54441;52.110;5.252;2022-07-15T10:25:41;2.6;;;0.8;;
64214;SDS011;54441;52.110;5.252;2022-07-15T10:27:49;1.0;;;0.5;;
64214;SDS011;54441;52.110;5.252;2022-07-15T10:31:31;1.7;;;0.8;;
64214;SDS011;54441;52.110;5.252;2022-07-15T10:33:20;0.8;;;0.5;;
64214;SDS011;54441;52.110;5.252;2022-07-15T10:35:15;2.4;;;0.5;;
64214;SDS011;54441;52.110;5.252;2022-07-15T10:37:19;3.8;;;0.9;;
64214;SDS011;54441;52.110;5.252;2022-07-15T10:39:06;0.7;;;0.6;;
64214;SDS011;54441;52.110;5.252;2022-07-15T10:40:55;2.1;;;0.7;;
64214;SDS011;54441;52.110;5.252;2022-07-15T10:43:02;1.3;;;0.6;;
64214;SDS011;54441;52.110;5.252;2022-07-15T10:45:01;1.3;;;0.6;;
64214;SDS011;54441;52.110;5.252;2022-07-15T10:47:16;2.5;;;0.6;;
64214;SDS011;54441;52.110;5.252;2022-07-15T10:49:28;3.0;;;0.8;;
64214;SDS011;54441;52.110;5.252;2022-07-15T10:51:48;2.6;;;1.2;;
64214;SDS011;54441;52.110;5.252;2022-07-15T10:53:42;3.5;;;0.9;;
64214;SDS011;54441;52.110;5.252;2022-07-15T10:55:30;2.0;;;0.7;;
64214;SDS011;54441;52.110;5.252;2022-07-15T10:57:18;3.8;;;1.0;;
64214;SDS011;54441;52.110;5.252;2022-07-15T11:00:54;3.5;;;1.11;;
64214;SDS011;54441;52.110;5.252;2022-07-15T11:02:53;1.9;;;0.7;;
64214;SDS011;54441;52.110;5.252;2022-07-15T11:04:48;4.5;;;0.7;;
64214;SDS011;54441;52.110;5.252;2022-07-15T11:06:59;1.11;;;0.5;;
64214;SDS011;54441;52.110;5.252;2022-07-15T11:09:42;2.5;;;0.7;;
64214;SDS011;54441;52.110;5.252;2022-07-15T11:11:46;2.21;;;0.7;;
64214;SDS011;54441;52.110;5.252;2022-07-15T11:13:50;2.0;;;0.8;;
64214;SDS011;54441;52.110;5.252;2022-07-15T11:17:28;1.2;;;0.5;;
64214;SDS011;54441;52.110;5.252;2022-07-15T11:19:24;1.11;;;0.6;;
64214;SDS011;54441;52.110;5.252;2022-07-15T11:21:13;1.11;;;0.6;;
64214;SDS011;54441;52.110;5.252;2022-07-15T11:23:01;0.9;;;0.5;;
64214;SDS011;54441;52.110;5.252;2022-07-15T11:24:49;2.1;;;0.4;;
64214;SDS011;54441;52.110;5.252;2022-07-15T11:26:44;2.0;;;0.7;;
64214;SDS011;54441;52.110;5.252;2022-07-15T11:28:34;1.6;;;0.7;;
64214;SDS011;54441;52.110;5.252;2022-07-15T11:32:10;1.5;;;0.8;;
64214;SDS011;54441;52.110;5.252;2022-07-15T11:33:56;1.3;;;0.7;;
64214;SDS011;54441;52.110;5.252;2022-07-15T11:35:45;2.4;;;0.7;;
64214;SDS011;54441;52.110;5.252;2022-07-15T11:37:35;2.8;;;0.6;;
64214;SDS011;54441;52.110;5.252;2022-07-15T11:39:26;1.7;;;0.6;;
64214;SDS011;54441;52.110;5.252;2022-07-15T11:44:32;1.5;;;0.6;;
64214;SDS011;54441;52.110;5.252;2022-07-15T11:46:23;0.7;;;0.5;;
64214;SDS011;54441;52.110;5.252;2022-07-15T11:48:11;1.2;;;0.5;;
64214;SDS011;54441;52.110;5.252;2022-07-15T11:49:59;1.11;;;0.8;;
64214;SDS011;54441;52.110;5.252;2022-07-15T11:51:47;0.7;;;0.5;;
64214;SDS011;54441;52.110;5.252;2022-07-15T11:53:34;1.2;;;0.6;;
64214;SDS011;54441;52.110;5.252;2022-07-15T11:57:10;1.2;;;0.6;;
64214;SDS011;54441;52.110;5.252;2022-07-15T11:58:57;3.1;;;0.6;;
64214;SDS011;54441;52.110;5.252;2022-07-15T12:00:46;2.7;;;0.7;;
64214;SDS011;54441;52.110;5.252;2022-07-15T12:02:34;4.0;;;0.9;;
64214;SDS011;54441;52.110;5.252;2022-07-15T12:04:25;1.4;;;0.5;;
64214;SDS011;54441;52.110;5.252;2022-07-15T12:06:14;1.11;;;0.6;;
64214;SDS011;54441;52.110;5.252;2022-07-15T12:09:51;3.6;;;0.8;;
64214;SDS011;54441;52.110;5.252;2022-07-15T12:11:38;1.2;;;0.7;;
64214;SDS011;54441;52.110;5.252;2022-07-15T12:13:24;3.7;;;1.11;;
64214;SDS011;54441;52.110;5.252;2022-07-15T12:15:12;1.3;;;0.5;;
64214;SDS011;54441;52.110;5.252;2022-07-15T12:16:59;1.6;;;0.8;;
64214;SDS011;54441;52.110;5.252;2022-07-15T12:18:45;4.3;;;0.9;;
64214;SDS011;54441;52.110;5.252;2022-07-15T12:22:20;2.7;;;1.11;;
64214;SDS011;54441;52.110;5.252;2022-07-15T12:24:08;2.1;;;0.7;;
64214;SDS011;54441;52.110;5.252;2022-07-15T12:26:02;1.3;;;1.0;;
64214;SDS011;54441;52.110;5.252;2022-07-15T12:27:49;2.31;;;1.0;;
64214;SDS011;54441;52.110;5.252;2022-07-15T12:29:35;1.7;;;1.0;;
64214;SDS011;54441;52.110;5.252;2022-07-15T12:31:23;3.0;;;1.0;;
64214;SDS011;54441;52.110;5.252;2022-07-15T12:35:02;2.8;;;1.11;;
64214;SDS011;54441;52.110;5.252;2022-07-15T12:36:54;1.2;;;0.9;;
64214;SDS011;54441;52.110;5.252;2022-07-15T12:38:43;2.0;;;1.4;;
64214;SDS011;54441;52.110;5.252;2022-07-15T12:40:30;4.41;;;1.11;;
64214;SDS011;54441;52.110;5.252;2022-07-15T12:42:17;2.21;;;1.11;;
64214;SDS011;54441;52.110;5.252;2022-07-15T12:44:03;1.11;;;0.9;;
64214;SDS011;54441;52.110;5.252;2022-07-15T12:45:51;3.9;;;1.2;;
64214;SDS011;54441;52.110;5.252;2022-07-15T12:49:45;2.6;;;1.0;;
64214;SDS011;54441;52.110;5.252;2022-07-15T12:51:34;2.8;;;1.2;;
64214;SDS011;54441;52.110;5.252;2022-07-15T12:53:21;2.8;;;1.2;;
64214;SDS011;54441;52.110;5.252;2022-07-15T12:55:13;2.1;;;1.0;;
64214;SDS011;54441;52.110;5.252;2022-07-15T12:57:03;2.5;;;0.9;;
64214;SDS011;54441;52.110;5.252;2022-07-15T12:58:50;1.3;;;1.11;;
64214;SDS011;54441;52.110;5.252;2022-07-15T13:00:36;2.1;;;1.0;;
64214;SDS011;54441;52.110;5.252;2022-07-15T13:04:14;3.6;;;1.3;;
64214;SDS011;54441;52.110;5.252;2022-07-15T13:06:00;2.7;;;1.0;;
64214;SDS011;54441;52.110;5.252;2022-07-15T13:07:49;2.21;;;1.11;;
64214;SDS011;54441;52.110;5.252;2022-07-15T13:09:36;3.2;;;1.5;;
64214;SDS011;54441;52.110;5.252;2022-07-15T13:11:23;3.2;;;1.2;;
64214;SDS011;54441;52.110;5.252;2022-07-15T13:13:11;3.3;;;1.4;;
64214;SDS011;54441;52.110;5.252;2022-07-15T13:16:46;2.5;;;1.4;;
64214;SDS011;54441;52.110;5.252;2022-07-15T13:18:33;2.5;;;1.2;;
64214;SDS011;54441;52.110;5.252;2022-07-15T13:20:21;4.41;;;1.3;;
64214;SDS011;54441;52.110;5.252;2022-07-15T13:22:08;3.1;;;1.2;;
64214;SDS011;54441;52.110;5.252;2022-07-15T13:23:54;2.6;;;1.3;;